Time;durP1;ratioP1;P1;durP2;ratioP2;P2;SDS_P1;SDS_P2;PMS_P1;PMS_P2;Temp;Humidity;BMP_temperature;BMP_pressure;BME280_temperature;BME280_humidity;BME280_pressure;Samples;Min_cycle;Max_cycle;Signal;HPM_P1;HPM_P2
2024/02/01 00:00:24;;;;;;;63.50;25.90;;;;;;;;;;5086753;28;20076;-57
2024/02/01 00:02:50;;;;;;;160.32;32.75;;;;;;;;;;5082864;28;20041;-59
2024/02/01 00:05:17;;;;;;;102.95;27.55;;;;;;;;;;5086078;28;20023;-54
2024/02/01 00:07:43;;;;;;;147.60;29.17;;;;;;;;;;5081973;28;20039;-58
2024/02/01 00:10:10;;;;;;;71.05;24.98;;;;;;;;;;5084626;28;20005;-56
2024/02/01 00:12:37;;;;;;;113.05;27.17;;;;;;;;;;5085309;28;20024;-52
2024/02/01 00:15:03;;;;;;;52.40;24.35;;;;;;;;;;5086109;28;20028;-58
2024/02/01 00:17:30;;;;;;;80.30;23.85;;;;;;;;;;5086217;28;20096;-55
2024/02/01 00:19:57;;;;;;;51.92;22.85;;;;;;;;;;5085869;28;20020;-63
2024/02/01 00:22:23;;;;;;;84.97;25.13;;;;;;;;;;5086083;28;20013;-60
2024/02/01 00:24:53;;;;;;;51.97;21.83;;;;;;;;;;5086013;28;20020;-56
2024/02/01 00:27:20;;;;;;;118.95;24.92;;;;;;;;;;5083321;28;20046;-59
2024/02/01 00:29:46;;;;;;;46.97;20.77;;;;;;;;;;5086226;28;20300;-60
2024/02/01 00:32:13;;;;;;;41.33;20.10;;;;;;;;;;5086473;28;20161;-53
2024/02/01 00:34:40;;;;;;;41.72;19.75;;;;;;;;;;5086321;28;20056;-62
2024/02/01 00:37:07;;;;;;;49.30;19.85;;;;;;;;;;5082806;28;20027;-57
2024/02/01 00:39:33;;;;;;;95.07;22.17;;;;;;;;;;5083756;28;20031;-57
2024/02/01 00:42:00;;;;;;;244.68;30.30;;;;;;;;;;5084203;28;20083;-58
2024/02/01 00:44:26;;;;;;;55.08;20.00;;;;;;;;;;5085986;28;20041;-55
2024/02/01 00:46:53;;;;;;;64.28;19.38;;;;;;;;;;5086111;28;20032;-60
2024/02/01 00:49:19;;;;;;;119.07;22.75;;;;;;;;;;5085677;28;20025;-60
2024/02/01 00:51:46;;;;;;;38.00;17.70;;;;;;;;;;5085993;28;20031;-59
2024/02/01 00:54:13;;;;;;;33.25;16.45;;;;;;;;;;5086264;28;20066;-59
2024/02/01 00:56:39;;;;;;;100.28;20.83;;;;;;;;;;5083683;28;20028;-57
2024/02/01 00:59:06;;;;;;;58.08;19.13;;;;;;;;;;5079823;28;20028;-59
2024/02/01 01:01:32;;;;;;;48.30;17.17;;;;;;;;;;5085868;28;20216;-60
2024/02/01 01:03:59;;;;;;;46.55;17.15;;;;;;;;;;5084689;28;20304;-61
2024/02/01 01:06:27;;;;;;;45.42;17.13;;;;;;;;;;5083519;28;20028;-61
2024/02/01 01:08:54;;;;;;;41.75;17.05;;;;;;;;;;5083910;28;20088;-60
2024/02/01 01:11:21;;;;;;;38.00;16.55;;;;;;;;;;5079169;28;20017;-57
2024/02/01 01:13:47;;;;;;;57.92;17.27;;;;;;;;;;5080591;28;20020;-60
2024/02/01 01:16:14;;;;;;;31.30;16.23;;;;;;;;;;5084575;28;20020;-59
2024/02/01 01:18:40;;;;;;;29.42;16.48;;;;;;;;;;5085078;28;20040;-62
2024/02/01 01:21:07;;;;;;;26.25;15.38;;;;;;;;;;5084416;28;20094;-60
2024/02/01 01:23:33;;;;;;;28.02;15.80;;;;;;;;;;5083783;28;20048;-61
2024/02/01 01:26:00;;;;;;;44.75;17.15;;;;;;;;;;5084742;28;20102;-57
2024/02/01 01:28:27;;;;;;;108.13;21.02;;;;;;;;;;5084688;28;20017;-62
2024/02/01 01:30:53;;;;;;;39.72;17.40;;;;;;;;;;5084666;28;20200;-58
2024/02/01 01:33:20;;;;;;;40.42;17.70;;;;;;;;;;5084804;28;20214;-61
2024/02/01 01:35:46;;;;;;;35.58;17.08;;;;;;;;;;5083984;28;20013;-57
2024/02/01 01:38:13;;;;;;;42.08;18.15;;;;;;;;;;5084731;28;20043;-61
2024/02/01 01:40:39;;;;;;;154.20;25.63;;;;;;;;;;5084512;28;20028;-63
2024/02/01 01:43:06;;;;;;;43.20;16.92;;;;;;;;;;5084032;28;20360;-64
2024/02/01 01:45:33;;;;;;;41.25;16.95;;;;;;;;;;5080242;28;20205;-58
2024/02/01 01:47:59;;;;;;;32.35;17.20;;;;;;;;;;5083076;28;20026;-60
2024/02/01 01:50:26;;;;;;;62.65;19.73;;;;;;;;;;5084053;28;20023;-62
2024/02/01 01:52:53;;;;;;;45.22;17.70;;;;;;;;;;5084418;28;20036;-58
2024/02/01 01:55:20;;;;;;;27.52;17.27;;;;;;;;;;5084083;28;20044;-56
2024/02/01 01:57:48;;;;;;;39.05;17.90;;;;;;;;;;5083853;28;20032;-60
2024/02/01 02:00:15;;;;;;;325.33;49.22;;;;;;;;;;5083954;28;20036;-59
2024/02/01 02:02:43;;;;;;;81.22;23.33;;;;;;;;;;5084085;28;20024;-56
2024/02/01 02:05:11;;;;;;;63.30;20.45;;;;;;;;;;5081361;28;20012;-53
2024/02/01 02:07:40;;;;;;;77.60;22.67;;;;;;;;;;5083949;28;20039;-57
2024/02/01 02:10:14;;;;;;;120.88;24.10;;;;;;;;;;5083838;28;20023;-57
2024/02/01 02:12:42;;;;;;;54.20;20.25;;;;;;;;;;5083738;28;20087;-57
2024/02/01 02:15:10;;;;;;;60.65;21.65;;;;;;;;;;5081249;28;20087;-63
2024/02/01 02:17:37;;;;;;;50.10;19.63;;;;;;;;;;5083824;28;20202;-61
2024/02/01 02:20:16;;;;;;;39.03;19.23;;;;;;;;;;5083897;28;20343;-57
2024/02/01 02:22:43;;;;;;;43.45;18.30;;;;;;;;;;5078941;28;20044;-63
2024/02/01 02:25:10;;;;;;;40.42;18.90;;;;;;;;;;5081754;28;20026;-64
2024/02/01 02:27:41;;;;;;;37.42;17.58;;;;;;;;;;5083771;28;20346;-64
2024/02/01 02:30:08;;;;;;;39.45;18.00;;;;;;;;;;5083576;28;20021;-58
2024/02/01 02:32:35;;;;;;;33.42;17.13;;;;;;;;;;5083490;28;20031;-61
2024/02/01 02:35:02;;;;;;;30.15;17.23;;;;;;;;;;5083206;28;20216;-64
2024/02/01 02:37:29;;;;;;;36.35;17.35;;;;;;;;;;5083625;28;20020;-63
2024/02/01 02:39:56;;;;;;;29.38;16.92;;;;;;;;;;5083709;28;20017;-61
2024/02/01 02:42:23;;;;;;;27.17;15.82;;;;;;;;;;5083393;28;20193;-60
2024/02/01 02:44:49;;;;;;;28.95;16.23;;;;;;;;;;5083251;28;20067;-62
2024/02/01 02:47:18;;;;;;;26.85;16.00;;;;;;;;;;5083195;28;20062;-57
2024/02/01 02:49:45;;;;;;;21.08;15.68;;;;;;;;;;5083391;28;20055;-59
2024/02/01 02:52:11;;;;;;;27.30;18.27;;;;;;;;;;5083348;28;20012;-63
2024/02/01 02:54:38;;;;;;;31.83;24.52;;;;;;;;;;5083542;28;20036;-63
2024/02/01 02:57:06;;;;;;;40.58;25.42;;;;;;;;;;5081729;28;20253;-58
2024/02/01 02:59:32;;;;;;;38.72;27.50;;;;;;;;;;5081313;28;20258;-59
2024/02/01 03:01:59;;;;;;;34.42;22.55;;;;;;;;;;5080463;28;20044;-61
2024/02/01 03:04:25;;;;;;;33.25;20.42;;;;;;;;;;5083813;28;20046;-60
2024/02/01 03:06:52;;;;;;;26.33;19.15;;;;;;;;;;5079038;28;20025;-64
2024/02/01 03:09:18;;;;;;;38.22;17.92;;;;;;;;;;5081537;28;20020;-65
2024/02/01 03:11:45;;;;;;;26.73;17.98;;;;;;;;;;5077522;28;20032;-56
2024/02/01 03:14:12;;;;;;;30.65;16.80;;;;;;;;;;5083481;28;20305;-58
2024/02/01 03:16:38;;;;;;;29.25;17.70;;;;;;;;;;5083199;28;20035;-62
2024/02/01 03:19:05;;;;;;;26.88;18.35;;;;;;;;;;5083498;28;20083;-57
2024/02/01 03:21:31;;;;;;;27.00;18.00;;;;;;;;;;5083128;28;20092;-57
2024/02/01 03:24:00;;;;;;;24.02;17.33;;;;;;;;;;5083326;28;20031;-61
2024/02/01 03:26:34;;;;;;;28.67;18.40;;;;;;;;;;5081914;28;20016;-60
2024/02/01 03:29:02;;;;;;;21.23;17.33;;;;;;;;;;5083382;28;20012;-60
2024/02/01 03:31:33;;;;;;;44.55;18.88;;;;;;;;;;5082855;28;20029;-61
2024/02/01 03:34:10;;;;;;;34.22;18.30;;;;;;;;;;5083315;28;20036;-61
2024/02/01 03:36:40;;;;;;;27.77;17.88;;;;;;;;;;5080857;28;20020;-60
2024/02/01 03:39:22;;;;;;;69.50;20.23;;;;;;;;;;5083385;28;20024;-58
2024/02/01 03:41:49;;;;;;;80.63;21.38;;;;;;;;;;5082378;28;20033;-56
2024/02/01 03:44:17;;;;;;;67.55;22.08;;;;;;;;;;5079807;28;20036;-57
2024/02/01 03:46:43;;;;;;;62.30;21.05;;;;;;;;;;5079501;28;20029;-59
2024/02/01 03:49:10;;;;;;;37.97;18.83;;;;;;;;;;5086943;28;20040;-60
2024/02/01 03:51:37;;;;;;;34.03;20.02;;;;;;;;;;5086316;28;20077;-61
2024/02/01 03:54:08;;;;;;;25.52;18.35;;;;;;;;;;5086928;28;20340;-65
2024/02/01 03:56:38;;;;;;;27.08;18.48;;;;;;;;;;5083883;28;20032;-64
2024/02/01 03:59:08;;;;;;;24.15;18.65;;;;;;;;;;5086779;28;20016;-65
2024/02/01 04:01:35;;;;;;;23.48;17.95;;;;;;;;;;5083712;28;20030;-59
2024/02/01 04:04:02;;;;;;;27.52;18.05;;;;;;;;;;5086567;28;20017;-58
2024/02/01 04:06:28;;;;;;;33.97;18.60;;;;;;;;;;5080005;28;20291;-53
2024/02/01 04:08:55;;;;;;;27.77;18.63;;;;;;;;;;5085174;28;20196;-53
2024/02/01 04:11:23;;;;;;;27.15;17.58;;;;;;;;;;5081922;28;20024;-51
2024/02/01 04:13:49;;;;;;;28.58;18.33;;;;;;;;;;5083762;28;20024;-57
2024/02/01 04:16:17;;;;;;;24.67;17.52;;;;;;;;;;5082343;28;20048;-59
2024/02/01 04:18:43;;;;;;;26.83;17.98;;;;;;;;;;5083902;28;20020;-57
2024/02/01 04:21:10;;;;;;;23.48;17.95;;;;;;;;;;5084622;28;20020;-59
2024/02/01 04:23:38;;;;;;;22.02;16.77;;;;;;;;;;5079599;28;20021;-58
2024/02/01 04:26:05;;;;;;;21.33;17.20;;;;;;;;;;5072688;28;20025;-58
2024/02/01 04:28:35;;;;;;;21.27;16.98;;;;;;;;;;5082858;28;20059;-60
2024/02/01 04:31:04;;;;;;;19.88;16.25;;;;;;;;;;5086603;28;20378;-59
2024/02/01 04:33:31;;;;;;;18.95;16.45;;;;;;;;;;5086598;28;20083;-60
2024/02/01 04:35:57;;;;;;;18.55;16.23;;;;;;;;;;5086303;28;20341;-56
2024/02/01 04:38:27;;;;;;;18.23;15.73;;;;;;;;;;5086680;28;20024;-58
2024/02/01 04:40:53;;;;;;;19.85;15.93;;;;;;;;;;5086053;28;20024;-61
2024/02/01 04:43:21;;;;;;;18.33;16.17;;;;;;;;;;5085972;28;20048;-60
2024/02/01 04:45:48;;;;;;;22.50;16.45;;;;;;;;;;5085826;28;20027;-61
2024/02/01 04:48:15;;;;;;;19.95;16.08;;;;;;;;;;5085747;28;20201;-61
2024/02/01 04:50:41;;;;;;;19.27;15.82;;;;;;;;;;5085601;28;20023;-61
2024/02/01 04:53:08;;;;;;;20.33;16.13;;;;;;;;;;5085786;28;20023;-57
2024/02/01 04:55:35;;;;;;;19.63;15.75;;;;;;;;;;5085551;28;20028;-58
2024/02/01 04:58:01;;;;;;;19.67;15.55;;;;;;;;;;5085400;28;20012;-58
2024/02/01 05:00:28;;;;;;;23.20;15.80;;;;;;;;;;5085511;28;20077;-56
2024/02/01 05:02:55;;;;;;;21.98;15.55;;;;;;;;;;5082733;28;20313;-57
2024/02/01 05:05:21;;;;;;;19.17;15.38;;;;;;;;;;5069703;28;20025;-59
2024/02/01 05:07:48;;;;;;;18.10;16.20;;;;;;;;;;5065651;28;20027;-62
2024/02/01 05:10:14;;;;;;;17.08;14.80;;;;;;;;;;5065557;28;20313;-58
2024/02/01 05:12:41;;;;;;;18.77;16.52;;;;;;;;;;5065271;28;20020;-58
2024/02/01 05:15:09;;;;;;;18.85;15.43;;;;;;;;;;5065512;28;20216;-63
2024/02/01 05:17:36;;;;;;;21.70;16.00;;;;;;;;;;5065415;28;20020;-60
2024/02/01 05:20:08;;;;;;;19.48;16.58;;;;;;;;;;5063970;28;20221;-61
2024/02/01 05:22:36;;;;;;;21.33;16.05;;;;;;;;;;5065402;28;20090;-57
2024/02/01 05:25:23;;;;;;;17.35;15.05;;;;;;;;;;5065180;28;20025;-57
2024/02/01 05:27:53;;;;;;;18.00;15.48;;;;;;;;;;5065340;28;20016;-61
2024/02/01 05:30:22;;;;;;;18.63;16.10;;;;;;;;;;5084152;28;20028;-58
2024/02/01 05:32:52;;;;;;;19.15;15.77;;;;;;;;;;5085176;28;20331;-56
2024/02/01 05:35:29;;;;;;;17.80;15.10;;;;;;;;;;5079771;28;20344;-59
2024/02/01 05:38:05;;;;;;;16.17;14.48;;;;;;;;;;5073719;28;20203;-62
2024/02/01 05:40:32;;;;;;;16.80;14.55;;;;;;;;;;5064918;28;20021;-57
2024/02/01 05:42:59;;;;;;;17.05;15.25;;;;;;;;;;5064727;28;20213;-62
2024/02/01 05:45:28;;;;;;;18.48;15.57;;;;;;;;;;5064959;28;20039;-59
2024/02/01 05:47:55;;;;;;;16.52;14.93;;;;;;;;;;5064922;28;20025;-59
2024/02/01 05:50:22;;;;;;;19.10;14.95;;;;;;;;;;5064536;28;20025;-57
2024/02/01 05:52:49;;;;;;;16.88;15.23;;;;;;;;;;5064837;28;20205;-61
2024/02/01 05:55:15;;;;;;;15.60;14.07;;;;;;;;;;5064679;28;20016;-62
2024/02/01 05:57:42;;;;;;;16.33;14.50;;;;;;;;;;5064433;28;20029;-64
2024/02/01 06:00:12;;;;;;;20.35;14.80;;;;;;;;;;5064706;28;20195;-63
2024/02/01 06:02:38;;;;;;;16.50;14.93;;;;;;;;;;5064671;28;20320;-64
2024/02/01 06:05:05;;;;;;;18.13;14.50;;;;;;;;;;5064329;28;20093;-59
2024/02/01 06:07:32;;;;;;;16.98;15.07;;;;;;;;;;5064548;28;20080;-58
2024/02/01 06:09:59;;;;;;;16.30;14.57;;;;;;;;;;5063898;28;20027;-61
2024/02/01 06:12:27;;;;;;;18.20;15.02;;;;;;;;;;5064318;28;20008;-61
2024/02/01 06:14:53;;;;;;;16.20;14.63;;;;;;;;;;5064344;28;20029;-61
2024/02/01 06:17:20;;;;;;;17.45;15.10;;;;;;;;;;5064275;28;20024;-62
2024/02/01 06:19:47;;;;;;;18.67;14.63;;;;;;;;;;5064238;28;20040;-60
2024/02/01 06:22:13;;;;;;;17.33;15.10;;;;;;;;;;5064359;28;20269;-60
2024/02/01 06:24:41;;;;;;;19.38;15.30;;;;;;;;;;5064278;28;20028;-59
2024/02/01 06:27:08;;;;;;;16.90;14.93;;;;;;;;;;5064353;28;20021;-63
2024/02/01 06:29:37;;;;;;;16.52;14.82;;;;;;;;;;5064586;28;20309;-61
2024/02/01 06:32:12;;;;;;;16.00;14.55;;;;;;;;;;5064126;28;20309;-60
2024/02/01 06:34:39;;;;;;;18.20;15.85;;;;;;;;;;5063811;28;20027;-60
2024/02/01 06:37:08;;;;;;;17.90;16.00;;;;;;;;;;5063953;28;20021;-61
2024/02/01 06:42:04;;;;;;;16.80;15.10;;;;;;;;;;5063712;28;20021;-59
2024/02/01 06:44:43;;;;;;;18.58;15.38;;;;;;;;;;5063744;28;20045;-58
2024/02/01 06:47:23;;;;;;;16.55;14.85;;;;;;;;;;5063803;28;20036;-61
2024/02/01 06:50:00;;;;;;;17.17;15.38;;;;;;;;;;5063848;28;20309;-60
2024/02/01 06:52:39;;;;;;;17.55;15.73;;;;;;;;;;5063717;28;20013;-61
2024/02/01 06:57:47;;;;;;;17.23;15.43;;;;;;;;;;5063779;28;20021;-56
2024/02/01 07:00:40;;;;;;;17.77;16.08;;;;;;;;;;5063861;28;20021;-60
2024/02/01 07:08:44;;;;;;;17.15;15.35;;;;;;;;;;5063743;28;20339;-61
2024/02/01 07:16:21;;;;;;;17.63;15.85;;;;;;;;;;5063598;28;20024;-59
2024/02/01 07:19:09;;;;;;;21.77;16.38;;;;;;;;;;5063754;28;20021;-61
2024/02/01 07:21:45;;;;;;;18.17;16.27;;;;;;;;;;5065669;28;20025;-59
2024/02/01 07:24:37;;;;;;;16.90;15.02;;;;;;;;;;5067715;28;20020;-60
2024/02/01 07:57:35;;;;;;;17.35;15.52;;;;;;;;;;5067287;28;20198;-61
2024/02/01 07:57:51;;;;;;;19.38;16.15;;;;;;;;;;5066943;28;20123;-62
2024/02/01 08:00:19;;;;;;;16.75;15.07;;;;;;;;;;5065689;28;20036;-62
2024/02/01 08:08:01;;;;;;;17.88;15.93;;;;;;;;;;5080738;28;20039;-60
2024/02/01 08:10:28;;;;;;;17.80;15.90;;;;;;;;;;5069842;28;20032;-61
2024/02/01 08:12:55;;;;;;;19.65;15.60;;;;;;;;;;5086846;28;20020;-61
2024/02/01 08:15:22;;;;;;;18.00;15.55;;;;;;;;;;5086670;28;20106;-59
2024/02/01 08:17:50;;;;;;;16.95;15.45;;;;;;;;;;5086513;28;20021;-62
2024/02/01 08:20:19;;;;;;;19.17;15.70;;;;;;;;;;5086560;28;20115;-60
2024/02/01 08:22:45;;;;;;;17.88;15.90;;;;;;;;;;5086621;28;20024;-62
2024/02/01 08:25:12;;;;;;;17.27;15.63;;;;;;;;;;5086225;28;20024;-61
2024/02/01 08:27:49;;;;;;;17.58;15.77;;;;;;;;;;5086403;28;20027;-60
2024/02/01 08:30:19;;;;;;;17.60;15.80;;;;;;;;;;5086345;28;20126;-61
2024/02/01 08:32:46;;;;;;;17.75;15.93;;;;;;;;;;5085962;28;20051;-59
2024/02/01 08:35:13;;;;;;;18.42;16.60;;;;;;;;;;5086254;28;20220;-57
2024/02/01 08:37:40;;;;;;;17.58;15.68;;;;;;;;;;5086229;28;20079;-61
2024/02/01 08:40:16;;;;;;;17.42;15.48;;;;;;;;;;5086239;28;20040;-61
2024/02/01 08:42:49;;;;;;;18.13;15.90;;;;;;;;;;5086185;28;20048;-59
2024/02/01 08:45:17;;;;;;;20.58;15.82;;;;;;;;;;5085653;28;20059;-62
2024/02/01 08:47:46;;;;;;;16.83;15.05;;;;;;;;;;5086199;28;20219;-62
2024/02/01 08:50:15;;;;;;;16.27;14.70;;;;;;;;;;5085930;28;20329;-62
2024/02/01 08:52:48;;;;;;;18.35;16.35;;;;;;;;;;5085833;28;20035;-61
2024/02/01 08:55:15;;;;;;;19.42;15.63;;;;;;;;;;5085846;28;20078;-61
2024/02/01 08:57:42;;;;;;;17.50;15.82;;;;;;;;;;5085758;28;20205;-62
2024/02/01 09:00:25;;;;;;;18.13;15.95;;;;;;;;;;5085688;28;20020;-61
2024/02/01 09:03:29;;;;;;;18.27;15.32;;;;;;;;;;5085868;28;20024;-63
2024/02/01 09:05:49;;;;;;;17.48;15.63;;;;;;;;;;5082547;28;20044;-62
2024/02/01 09:08:16;;;;;;;20.00;16.55;;;;;;;;;;5085672;28;20020;-62
2024/02/01 09:11:00;;;;;;;17.70;15.82;;;;;;;;;;5085673;28;20017;-62
2024/02/01 09:13:28;;;;;;;16.92;15.18;;;;;;;;;;5085688;28;20088;-63
2024/02/01 09:15:56;;;;;;;18.02;16.25;;;;;;;;;;5085530;28;20028;-61
2024/02/01 09:18:23;;;;;;;17.60;15.93;;;;;;;;;;5085799;28;20315;-60
2024/02/01 09:20:49;;;;;;;17.77;15.63;;;;;;;;;;5085401;28;20033;-60
2024/02/01 09:23:16;;;;;;;20.15;15.73;;;;;;;;;;5085342;28;20247;-62
2024/02/01 09:25:43;;;;;;;20.20;15.88;;;;;;;;;;5085183;28;20028;-61
2024/02/01 09:28:13;;;;;;;17.38;15.65;;;;;;;;;;5085406;28;20024;-61
2024/02/01 09:30:45;;;;;;;17.40;15.60;;;;;;;;;;5085117;28;20021;-61
2024/02/01 09:33:19;;;;;;;20.02;15.98;;;;;;;;;;5085310;28;20029;-61
2024/02/01 09:35:46;;;;;;;17.85;15.05;;;;;;;;;;5085179;28;20024;-61
2024/02/01 09:38:13;;;;;;;18.95;15.98;;;;;;;;;;5085113;28;20020;-60
2024/02/01 09:40:43;;;;;;;28.00;16.33;;;;;;;;;;5084972;28;20083;-61
2024/02/01 09:43:17;;;;;;;27.23;16.27;;;;;;;;;;5084627;28;20020;-57
2024/02/01 09:45:44;;;;;;;24.73;16.45;;;;;;;;;;5083909;28;20096;-62
2024/02/01 09:48:18;;;;;;;23.15;16.42;;;;;;;;;;5084920;28;20215;-60
2024/02/01 09:50:44;;;;;;;22.17;16.38;;;;;;;;;;5084975;28;20351;-62
2024/02/01 09:53:11;;;;;;;20.63;15.82;;;;;;;;;;5084843;28;20021;-62
2024/02/01 09:55:38;;;;;;;36.40;16.63;;;;;;;;;;5084572;28;20032;-63
2024/02/01 09:58:05;;;;;;;21.95;16.45;;;;;;;;;;5084728;28;20012;-60
2024/02/01 10:00:33;;;;;;;19.52;16.10;;;;;;;;;;5084645;28;20029;-60
2024/02/01 10:03:00;;;;;;;20.38;16.10;;;;;;;;;;5084452;28;20019;-59
2024/02/01 10:05:32;;;;;;;22.45;15.60;;;;;;;;;;5084363;28;20035;-61
2024/02/01 10:07:59;;;;;;;20.40;16.35;;;;;;;;;;5084731;28;20058;-55
2024/02/01 10:10:26;;;;;;;21.63;17.60;;;;;;;;;;5084244;28;20100;-62
2024/02/01 10:12:58;;;;;;;19.63;17.02;;;;;;;;;;5084532;28;20288;-61
2024/02/01 10:15:30;;;;;;;19.85;17.33;;;;;;;;;;5084303;28;20099;-60
2024/02/01 10:17:58;;;;;;;19.05;16.40;;;;;;;;;;5084219;28;20052;-62
2024/02/01 10:20:34;;;;;;;20.50;17.55;;;;;;;;;;5084207;28;20032;-61
2024/02/01 10:23:02;;;;;;;23.33;17.58;;;;;;;;;;5084345;28;20028;-61
2024/02/01 10:25:33;;;;;;;25.85;18.45;;;;;;;;;;5084082;28;20032;-61
2024/02/01 10:28:12;;;;;;;22.30;18.30;;;;;;;;;;5084398;28;20200;-61
2024/02/01 10:30:43;;;;;;;28.40;19.42;;;;;;;;;;5084026;28;20039;-62
2024/02/01 10:33:10;;;;;;;26.70;18.73;;;;;;;;;;5084259;28;20013;-64
2024/02/01 10:35:37;;;;;;;22.15;18.23;;;;;;;;;;5083891;28;20035;-63
2024/02/01 10:38:14;;;;;;;29.23;18.70;;;;;;;;;;5084118;28;20372;-62
2024/02/01 10:41:10;;;;;;;25.52;19.17;;;;;;;;;;5083971;28;20320;-63
2024/02/01 10:43:40;;;;;;;41.75;20.85;;;;;;;;;;5077770;28;20095;-63
2024/02/01 10:46:08;;;;;;;26.98;19.60;;;;;;;;;;5083796;28;20058;-63
2024/02/01 10:48:40;;;;;;;25.80;18.67;;;;;;;;;;5084318;28;20012;-61
2024/02/01 10:51:11;;;;;;;28.05;19.58;;;;;;;;;;5083855;28;20028;-60
2024/02/01 10:53:45;;;;;;;23.15;19.02;;;;;;;;;;5084016;28;20030;-61
2024/02/01 10:56:18;;;;;;;29.40;20.02;;;;;;;;;;5083543;28;20343;-59
2024/02/01 10:58:45;;;;;;;31.27;19.27;;;;;;;;;;5083999;28;20035;-60
2024/02/01 11:01:16;;;;;;;33.17;21.38;;;;;;;;;;5083205;28;20096;-60
2024/02/01 11:03:47;;;;;;;36.65;19.92;;;;;;;;;;5084114;28;20020;-60
2024/02/01 11:06:15;;;;;;;28.77;20.27;;;;;;;;;;5083627;28;20308;-61
2024/02/01 11:08:42;;;;;;;37.22;19.88;;;;;;;;;;5084117;28;20312;-62
2024/02/01 11:11:16;;;;;;;33.90;20.60;;;;;;;;;;5083721;28;20020;-62
2024/02/01 11:14:00;;;;;;;43.42;22.02;;;;;;;;;;5083842;28;20051;-60
2024/02/01 11:16:35;;;;;;;33.75;19.13;;;;;;;;;;5082619;28;20066;-62
2024/02/01 11:19:02;;;;;;;28.65;19.98;;;;;;;;;;5082982;28;20261;-58
2024/02/01 11:21:32;;;;;;;42.53;19.50;;;;;;;;;;5082257;28;20032;-63
2024/02/01 11:24:05;;;;;;;38.72;20.88;;;;;;;;;;5083396;28;20021;-61
2024/02/01 11:26:40;;;;;;;39.40;21.20;;;;;;;;;;5083660;28;20317;-63
2024/02/01 11:29:11;;;;;;;35.60;21.50;;;;;;;;;;5083951;28;20315;-65
2024/02/01 11:31:44;;;;;;;51.78;23.02;;;;;;;;;;5077397;28;20028;-59
2024/02/01 11:34:10;;;;;;;59.08;22.90;;;;;;;;;;5071767;28;20032;-60
2024/02/01 11:36:38;;;;;;;48.70;22.92;;;;;;;;;;5075750;28;20324;-62
2024/02/01 11:39:09;;;;;;;47.63;22.25;;;;;;;;;;5082202;28;20024;-62
2024/02/01 11:41:37;;;;;;;43.22;21.20;;;;;;;;;;5083511;28;20016;-62
2024/02/01 11:44:08;;;;;;;48.53;21.80;;;;;;;;;;5083207;28;20101;-62
2024/02/01 11:46:35;;;;;;;52.42;21.10;;;;;;;;;;5083485;28;20026;-62
2024/02/01 11:49:01;;;;;;;50.90;21.25;;;;;;;;;;5083709;28;20017;-63
2024/02/01 11:51:28;;;;;;;36.90;20.52;;;;;;;;;;5083130;28;20090;-64
2024/02/01 11:53:55;;;;;;;56.40;20.80;;;;;;;;;;5083677;28;20043;-64
2024/02/01 11:56:21;;;;;;;55.80;21.85;;;;;;;;;;5083319;28;20029;-64
2024/02/01 11:58:49;;;;;;;49.25;21.95;;;;;;;;;;5082077;28;20252;-64
2024/02/01 12:01:16;;;;;;;45.53;19.75;;;;;;;;;;5083173;28;20074;-62
2024/02/01 12:03:50;;;;;;;41.15;19.52;;;;;;;;;;5083534;28;20024;-62
2024/02/01 12:06:19;;;;;;;43.03;19.20;;;;;;;;;;5083038;28;20024;-64
2024/02/01 12:08:46;;;;;;;32.13;19.08;;;;;;;;;;5085708;28;20031;-64
2024/02/01 12:11:14;;;;;;;41.05;18.52;;;;;;;;;;5086636;28;20017;-64
2024/02/01 12:13:46;;;;;;;47.92;19.75;;;;;;;;;;5086774;28;20028;-66
2024/02/01 12:16:31;;;;;;;46.45;18.88;;;;;;;;;;5086607;28;20056;-67
2024/02/01 12:19:00;;;;;;;39.33;18.35;;;;;;;;;;5086819;28;20024;-62
2024/02/01 12:21:27;;;;;;;41.25;17.92;;;;;;;;;;5086511;28;20025;-60
2024/02/01 12:23:56;;;;;;;42.08;18.30;;;;;;;;;;5086779;28;20024;-60
2024/02/01 12:26:25;;;;;;;39.88;17.90;;;;;;;;;;5086327;28;20081;-59
2024/02/01 12:28:54;;;;;;;30.13;17.60;;;;;;;;;;5086764;28;20326;-62
2024/02/01 12:31:20;;;;;;;36.08;18.17;;;;;;;;;;5086276;28;20027;-59
2024/02/01 12:33:48;;;;;;;29.17;18.75;;;;;;;;;;5086615;28;20471;-62
2024/02/01 12:36:14;;;;;;;30.10;18.00;;;;;;;;;;5086243;28;20020;-62
2024/02/01 12:38:41;;;;;;;36.50;18.23;;;;;;;;;;5086460;28;20024;-60
2024/02/01 12:41:14;;;;;;;28.73;18.65;;;;;;;;;;5084972;28;20024;-56
2024/02/01 12:43:42;;;;;;;50.92;19.75;;;;;;;;;;5086254;28;20036;-61
2024/02/01 12:46:12;;;;;;;48.30;20.13;;;;;;;;;;5085925;28;20039;-62
2024/02/01 12:48:40;;;;;;;64.82;21.27;;;;;;;;;;5086249;28;20190;-62
2024/02/01 12:51:07;;;;;;;46.28;20.20;;;;;;;;;;5085847;28;20035;-59
2024/02/01 12:53:34;;;;;;;136.15;27.33;;;;;;;;;;5086054;28;20127;-63
2024/02/01 12:56:01;;;;;;;94.32;26.30;;;;;;;;;;5085954;28;20028;-63
2024/02/01 12:58:27;;;;;;;87.45;27.38;;;;;;;;;;5086131;28;20021;-59
2024/02/01 13:00:54;;;;;;;191.73;43.38;;;;;;;;;;5085655;28;20075;-63
2024/02/01 13:03:20;;;;;;;102.05;28.60;;;;;;;;;;5085947;28;20017;-57
2024/02/01 13:05:47;;;;;;;115.30;32.53;;;;;;;;;;5085728;28;20024;-60
2024/02/01 13:08:17;;;;;;;142.20;34.35;;;;;;;;;;5085638;28;20024;-61
2024/02/01 13:10:44;;;;;;;155.73;37.17;;;;;;;;;;5085621;28;20012;-61
2024/02/01 13:13:11;;;;;;;141.68;35.78;;;;;;;;;;5085608;28;20028;-63
2024/02/01 13:15:46;;;;;;;133.10;33.95;;;;;;;;;;5085382;28;20264;-63
2024/02/01 13:18:13;;;;;;;123.63;33.25;;;;;;;;;;5085376;28;20205;-63
2024/02/01 13:20:43;;;;;;;122.47;31.27;;;;;;;;;;5071150;28;20119;-63
2024/02/01 13:23:09;;;;;;;108.43;31.15;;;;;;;;;;5065251;28;20079;-62
2024/02/01 13:25:39;;;;;;;100.05;30.25;;;;;;;;;;5065335;28;20025;-62
2024/02/01 13:28:09;;;;;;;92.35;30.30;;;;;;;;;;5077417;28;20069;-56
2024/02/01 13:30:39;;;;;;;116.38;30.63;;;;;;;;;;5085122;28;20052;-58
2024/02/01 13:33:08;;;;;;;119.35;31.52;;;;;;;;;;5085255;28;20109;-56
2024/02/01 13:35:38;;;;;;;126.90;31.42;;;;;;;;;;5080466;28;20025;-58
2024/02/01 13:38:11;;;;;;;157.88;34.33;;;;;;;;;;5065151;28;20028;-58
2024/02/01 13:40:50;;;;;;;151.52;35.15;;;;;;;;;;5064927;28;20029;-56
2024/02/01 13:43:17;;;;;;;133.25;33.88;;;;;;;;;;5065030;28;20091;-58
2024/02/01 13:45:44;;;;;;;84.38;28.70;;;;;;;;;;5071988;28;20370;-58
2024/02/01 13:48:11;;;;;;;63.25;25.45;;;;;;;;;;5084832;28;20051;-59
2024/02/01 13:50:38;;;;;;;56.65;24.98;;;;;;;;;;5084779;28;20032;-56
2024/02/01 13:53:05;;;;;;;41.70;23.17;;;;;;;;;;5084621;28;20020;-57
2024/02/01 13:55:31;;;;;;;65.93;25.13;;;;;;;;;;5084618;28;20247;-58
2024/02/01 13:57:58;;;;;;;115.28;30.40;;;;;;;;;;5083679;28;20028;-62
2024/02/01 14:00:24;;;;;;;122.38;31.67;;;;;;;;;;5084841;28;20016;-57
2024/02/01 14:02:56;;;;;;;93.45;28.88;;;;;;;;;;5084616;28;20297;-58
2024/02/01 14:05:24;;;;;;;77.63;26.77;;;;;;;;;;5084535;28;20036;-62
2024/02/01 14:07:54;;;;;;;64.30;25.77;;;;;;;;;;5084492;28;20091;-62
2024/02/01 14:10:21;;;;;;;51.55;24.70;;;;;;;;;;5084290;28;20046;-62
2024/02/01 14:12:48;;;;;;;46.83;23.27;;;;;;;;;;5077542;28;20289;-61
2024/02/01 14:15:15;;;;;;;38.60;23.67;;;;;;;;;;5084440;28;20024;-61
2024/02/01 14:17:41;;;;;;;32.10;21.65;;;;;;;;;;5084228;28;20088;-57
2024/02/01 14:20:14;;;;;;;29.15;21.40;;;;;;;;;;5083829;28;20032;-58
2024/02/01 14:22:44;;;;;;;28.98;23.13;;;;;;;;;;5081521;28;20304;-65
2024/02/01 14:25:11;;;;;;;30.27;22.70;;;;;;;;;;5070419;28;20055;-62
2024/02/01 14:27:38;;;;;;;29.17;22.98;;;;;;;;;;5079962;28;20023;-58
2024/02/01 14:30:10;;;;;;;27.42;23.45;;;;;;;;;;5083505;28;20028;-58
2024/02/01 14:32:38;;;;;;;27.83;23.02;;;;;;;;;;5081641;28;20042;-56
2024/02/01 14:35:06;;;;;;;33.67;22.60;;;;;;;;;;5081290;28;20088;-58
2024/02/01 14:37:33;;;;;;;26.90;23.55;;;;;;;;;;5079053;28;20038;-57
2024/02/01 14:40:02;;;;;;;25.60;23.00;;;;;;;;;;5083972;28;20388;-62
2024/02/01 14:42:29;;;;;;;25.48;22.90;;;;;;;;;;5079735;28;20048;-57
2024/02/01 14:44:55;;;;;;;26.75;22.55;;;;;;;;;;5077357;28;20047;-59
2024/02/01 14:47:22;;;;;;;25.80;22.88;;;;;;;;;;5082822;28;20042;-57
2024/02/01 14:49:49;;;;;;;24.48;22.17;;;;;;;;;;5083634;28;20012;-60
2024/02/01 14:52:17;;;;;;;24.88;22.33;;;;;;;;;;5083450;28;20008;-58
2024/02/01 14:54:44;;;;;;;24.40;22.15;;;;;;;;;;5083371;28;20024;-57
2024/02/01 14:57:11;;;;;;;25.30;22.42;;;;;;;;;;5083507;28;20013;-57
2024/02/01 14:59:39;;;;;;;30.92;23.52;;;;;;;;;;5084096;28;20178;-56
2024/02/01 15:02:05;;;;;;;29.55;24.52;;;;;;;;;;5081400;28;20043;-55
2024/02/01 15:04:32;;;;;;;27.77;23.92;;;;;;;;;;5081677;28;20028;-63
2024/02/01 15:06:59;;;;;;;28.17;24.75;;;;;;;;;;5083463;28;20020;-59
2024/02/01 15:09:25;;;;;;;28.35;24.77;;;;;;;;;;5083787;28;20077;-58
2024/02/01 15:11:52;;;;;;;32.25;24.58;;;;;;;;;;5083389;28;20021;-58
2024/02/01 15:14:19;;;;;;;29.50;25.00;;;;;;;;;;5083840;28;20083;-56